Benson, Minnesota
Current Conditions -  °F | °C
As of 2:54 AM on Saturday 22 Nov 2014 (Local Time) from KBBB Reporting Station
Clear Clear  
Wind Chill: 17°   Ceiling: Unl
Heat Index: 25°   Visibility: 7mi
Dew Point: 25°   Wind: 7mph
Humidity: 100%   Direction: 200°SSW
Pressure: 29.75"   Gusts: NA
Location:  45.31°N, 95.6°W
Report Text: KBBB 220854Z AUTO 20006KT 7SM CLR M04/M04 A2975 RMK AO2
Loading
Personal Weather Stations






























Interactive Weather Map New forecast layout! Learn more

10-Day Weather Forecast

Advertisements
Track Severe Weather on mobile